sensor_id;sensor_type;location;lat;lon;timestamp;P1;durP1;ratioP1;P2;durP2;ratioP2
9918;SDS011;4998;51.024;13.828;2023-05-23T00:00:15;5.00;;;3.40;;
9918;SDS011;4998;51.024;13.828;2023-05-23T00:02:43;3.90;;;3.50;;
9918;SDS011;4998;51.024;13.828;2023-05-23T00:05:12;3.90;;;3.30;;
9918;SDS011;4998;51.024;13.828;2023-05-23T00:07:42;3.10;;;2.80;;
9918;SDS011;4998;51.024;13.828;2023-05-23T00:10:09;4.17;;;3.50;;
9918;SDS011;4998;51.024;13.828;2023-05-23T00:12:36;5.40;;;3.80;;
9918;SDS011;4998;51.024;13.828;2023-05-23T00:15:03;4.87;;;3.73;;
9918;SDS011;4998;51.024;13.828;2023-05-23T00:17:32;4.10;;;3.70;;
9918;SDS011;4998;51.024;13.828;2023-05-23T00:20:01;4.23;;;3.70;;
9918;SDS011;4998;51.024;13.828;2023-05-23T00:22:30;4.40;;;4.00;;
9918;SDS011;4998;51.024;13.828;2023-05-23T00:24:57;5.53;;;3.93;;
9918;SDS011;4998;51.024;13.828;2023-05-23T00:27:26;4.87;;;4.00;;
9918;SDS011;4998;51.024;13.828;2023-05-23T00:29:53;4.33;;;3.90;;
9918;SDS011;4998;51.024;13.828;2023-05-23T00:32:20;8.03;;;4.00;;
9918;SDS011;4998;51.024;13.828;2023-05-23T00:34:47;6.30;;;4.03;;
9918;SDS011;4998;51.024;13.828;2023-05-23T00:37:14;3.70;;;3.40;;
9918;SDS011;4998;51.024;13.828;2023-05-23T00:39:42;3.77;;;3.40;;
9918;SDS011;4998;51.024;13.828;2023-05-23T00:42:09;4.20;;;3.77;;
9918;SDS011;4998;51.024;13.828;2023-05-23T00:44:36;8.30;;;4.20;;
9918;SDS011;4998;51.024;13.828;2023-05-23T00:47:04;4.63;;;4.23;;
9918;SDS011;4998;51.024;13.828;2023-05-23T00:49:33;3.63;;;3.33;;
9918;SDS011;4998;51.024;13.828;2023-05-23T00:52:00;6.00;;;4.00;;
9918;SDS011;4998;51.024;13.828;2023-05-23T00:54:29;4.30;;;3.90;;
9918;SDS011;4998;51.024;13.828;2023-05-23T00:56:58;5.20;;;4.13;;
9918;SDS011;4998;51.024;13.828;2023-05-23T00:59:25;4.00;;;3.70;;
9918;SDS011;4998;51.024;13.828;2023-05-23T01:01:53;5.03;;;3.83;;
9918;SDS011;4998;51.024;13.828;2023-05-23T01:04:22;4.93;;;4.10;;
9918;SDS011;4998;51.024;13.828;2023-05-23T01:06:51;4.07;;;3.70;;
9918;SDS011;4998;51.024;13.828;2023-05-23T01:09:19;5.00;;;4.03;;
9918;SDS011;4998;51.024;13.828;2023-05-23T01:11:49;4.50;;;4.07;;
9918;SDS011;4998;51.024;13.828;2023-05-23T01:14:28;4.27;;;3.87;;
9918;SDS011;4998;51.024;13.828;2023-05-23T01:17:02;6.00;;;4.10;;
9918;SDS011;4998;51.024;13.828;2023-05-23T01:19:41;7.20;;;4.60;;
9918;SDS011;4998;51.024;13.828;2023-05-23T01:22:22;8.57;;;4.30;;
9918;SDS011;4998;51.024;13.828;2023-05-23T01:25:06;7.03;;;4.23;;
9918;SDS011;4998;51.024;13.828;2023-05-23T01:27:44;7.73;;;4.73;;
9918;SDS011;4998;51.024;13.828;2023-05-23T01:30:16;10.23;;;4.40;;
9918;SDS011;4998;51.024;13.828;2023-05-23T01:32:45;4.57;;;4.07;;
9918;SDS011;4998;51.024;13.828;2023-05-23T01:35:13;6.23;;;4.27;;
9918;SDS011;4998;51.024;13.828;2023-05-23T01:37:45;5.07;;;4.37;;
9918;SDS011;4998;51.024;13.828;2023-05-23T01:40:12;6.10;;;4.33;;
9918;SDS011;4998;51.024;13.828;2023-05-23T01:42:39;4.37;;;3.90;;
9918;SDS011;4998;51.024;13.828;2023-05-23T01:45:09;5.00;;;3.90;;
9918;SDS011;4998;51.024;13.828;2023-05-23T01:47:37;5.20;;;4.00;;
9918;SDS011;4998;51.024;13.828;2023-05-23T01:50:06;6.90;;;4.10;;
9918;SDS011;4998;51.024;13.828;2023-05-23T01:52:34;6.10;;;3.90;;
9918;SDS011;4998;51.024;13.828;2023-05-23T01:55:02;4.20;;;3.80;;
9918;SDS011;4998;51.024;13.828;2023-05-23T01:57:34;5.00;;;3.93;;
9918;SDS011;4998;51.024;13.828;2023-05-23T02:00:02;5.63;;;4.40;;
9918;SDS011;4998;51.024;13.828;2023-05-23T02:02:32;7.67;;;4.20;;
9918;SDS011;4998;51.024;13.828;2023-05-23T02:04:59;8.83;;;4.50;;
9918;SDS011;4998;51.024;13.828;2023-05-23T02:07:26;5.17;;;4.37;;
9918;SDS011;4998;51.024;13.828;2023-05-23T02:09:53;9.50;;;4.70;;
9918;SDS011;4998;51.024;13.828;2023-05-23T02:12:21;6.20;;;4.00;;
9918;SDS011;4998;51.024;13.828;2023-05-23T02:14:48;9.40;;;4.40;;
9918;SDS011;4998;51.024;13.828;2023-05-23T02:17:16;5.20;;;4.40;;
9918;SDS011;4998;51.024;13.828;2023-05-23T02:19:44;5.10;;;4.10;;
9918;SDS011;4998;51.024;13.828;2023-05-23T02:22:11;5.70;;;4.30;;
9918;SDS011;4998;51.024;13.828;2023-05-23T02:24:38;4.67;;;4.27;;
9918;SDS011;4998;51.024;13.828;2023-05-23T02:27:06;4.80;;;4.17;;
9918;SDS011;4998;51.024;13.828;2023-05-23T02:29:33;5.70;;;3.97;;
9918;SDS011;4998;51.024;13.828;2023-05-23T02:32:00;6.40;;;4.03;;
9918;SDS011;4998;51.024;13.828;2023-05-23T02:34:27;5.57;;;4.20;;
9918;SDS011;4998;51.024;13.828;2023-05-23T02:36:56;5.03;;;3.90;;
9918;SDS011;4998;51.024;13.828;2023-05-23T02:39:23;4.87;;;4.07;;
9918;SDS011;4998;51.024;13.828;2023-05-23T02:41:50;4.67;;;4.17;;
9918;SDS011;4998;51.024;13.828;2023-05-23T02:47:39;8.50;;;4.30;;
9918;SDS011;4998;51.024;13.828;2023-05-23T02:50:06;4.40;;;4.00;;
9918;SDS011;4998;51.024;13.828;2023-05-23T02:52:35;5.17;;;3.73;;
9918;SDS011;4998;51.024;13.828;2023-05-23T02:55:03;5.53;;;3.90;;
9918;SDS011;4998;51.024;13.828;2023-05-23T02:57:30;4.40;;;4.00;;
9918;SDS011;4998;51.024;13.828;2023-05-23T02:59:58;5.90;;;4.40;;
9918;SDS011;4998;51.024;13.828;2023-05-23T03:02:25;4.43;;;3.93;;
9918;SDS011;4998;51.024;13.828;2023-05-23T03:04:52;4.73;;;3.90;;
9918;SDS011;4998;51.024;13.828;2023-05-23T03:07:20;5.60;;;4.60;;
9918;SDS011;4998;51.024;13.828;2023-05-23T03:09:48;4.37;;;3.93;;
9918;SDS011;4998;51.024;13.828;2023-05-23T03:12:15;5.27;;;3.70;;
9918;SDS011;4998;51.024;13.828;2023-05-23T03:14:42;6.57;;;4.20;;
9918;SDS011;4998;51.024;13.828;2023-05-23T03:17:10;5.17;;;4.00;;
9918;SDS011;4998;51.024;13.828;2023-05-23T03:19:38;4.57;;;4.17;;
9918;SDS011;4998;51.024;13.828;2023-05-23T03:22:05;5.23;;;4.40;;
9918;SDS011;4998;51.024;13.828;2023-05-23T03:24:32;4.33;;;3.90;;
9918;SDS011;4998;51.024;13.828;2023-05-23T03:27:01;7.80;;;4.10;;
9918;SDS011;4998;51.024;13.828;2023-05-23T03:29:28;4.87;;;4.10;;
9918;SDS011;4998;51.024;13.828;2023-05-23T03:31:55;3.80;;;3.50;;
9918;SDS011;4998;51.024;13.828;2023-05-23T03:34:22;5.03;;;4.20;;
9918;SDS011;4998;51.024;13.828;2023-05-23T03:36:50;5.57;;;4.68;;
9918;SDS011;4998;51.024;13.828;2023-05-23T03:39:17;4.40;;;4.07;;
9918;SDS011;4998;51.024;13.828;2023-05-23T03:41:44;4.73;;;4.17;;
9918;SDS011;4998;51.024;13.828;2023-05-23T03:44:13;4.87;;;4.10;;
9918;SDS011;4998;51.024;13.828;2023-05-23T03:46:40;4.00;;;3.67;;
9918;SDS011;4998;51.024;13.828;2023-05-23T03:49:07;4.50;;;4.00;;
9918;SDS011;4998;51.024;13.828;2023-05-23T03:51:34;5.10;;;3.70;;
9918;SDS011;4998;51.024;13.828;2023-05-23T03:54:01;4.40;;;4.00;;
9918;SDS011;4998;51.024;13.828;2023-05-23T03:56:28;5.33;;;4.17;;
9918;SDS011;4998;51.024;13.828;2023-05-23T03:58:55;5.47;;;3.77;;
9918;SDS011;4998;51.024;13.828;2023-05-23T04:01:23;4.07;;;3.43;;
9918;SDS011;4998;51.024;13.828;2023-05-23T04:03:50;7.70;;;3.90;;
9918;SDS011;4998;51.024;13.828;2023-05-23T04:06:17;4.30;;;3.80;;
9918;SDS011;4998;51.024;13.828;2023-05-23T04:08:46;4.47;;;3.53;;
9918;SDS011;4998;51.024;13.828;2023-05-23T04:11:13;7.70;;;4.67;;
9918;SDS011;4998;51.024;13.828;2023-05-23T04:13:41;5.33;;;3.70;;
9918;SDS011;4998;51.024;13.828;2023-05-23T04:16:08;4.43;;;3.83;;
9918;SDS011;4998;51.024;13.828;2023-05-23T04:18:37;4.70;;;4.10;;
9918;SDS011;4998;51.024;13.828;2023-05-23T04:21:04;4.40;;;4.00;;
9918;SDS011;4998;51.024;13.828;2023-05-23T04:23:31;5.23;;;3.80;;
9918;SDS011;4998;51.024;13.828;2023-05-23T04:25:58;5.80;;;3.80;;
9918;SDS011;4998;51.024;13.828;2023-05-23T04:28:25;4.30;;;3.90;;
9918;SDS011;4998;51.024;13.828;2023-05-23T04:30:52;5.93;;;4.43;;
9918;SDS011;4998;51.024;13.828;2023-05-23T04:33:20;7.73;;;4.17;;
9918;SDS011;4998;51.024;13.828;2023-05-23T04:35:48;4.20;;;3.80;;
9918;SDS011;4998;51.024;13.828;2023-05-23T04:38:16;4.30;;;3.90;;
9918;SDS011;4998;51.024;13.828;2023-05-23T04:40:43;5.17;;;4.03;;
9918;SDS011;4998;51.024;13.828;2023-05-23T04:43:10;4.47;;;3.90;;
9918;SDS011;4998;51.024;13.828;2023-05-23T04:45:38;7.60;;;4.37;;
9918;SDS011;4998;51.024;13.828;2023-05-23T04:48:06;4.37;;;3.97;;
9918;SDS011;4998;51.024;13.828;2023-05-23T04:50:33;4.80;;;4.10;;
9918;SDS011;4998;51.024;13.828;2023-05-23T04:53:03;4.20;;;3.80;;
9918;SDS011;4998;51.024;13.828;2023-05-23T04:55:30;5.30;;;4.07;;
9918;SDS011;4998;51.024;13.828;2023-05-23T04:57:57;5.97;;;4.00;;
9918;SDS011;4998;51.024;13.828;2023-05-23T05:00:26;4.20;;;3.80;;
9918;SDS011;4998;51.024;13.828;2023-05-23T05:02:54;4.27;;;3.90;;
9918;SDS011;4998;51.024;13.828;2023-05-23T05:05:21;4.60;;;4.20;;
9918;SDS011;4998;51.024;13.828;2023-05-23T05:07:48;5.73;;;4.20;;
9918;SDS011;4998;51.024;13.828;2023-05-23T05:10:16;4.13;;;3.73;;
9918;SDS011;4998;51.024;13.828;2023-05-23T05:12:43;4.77;;;4.30;;
9918;SDS011;4998;51.024;13.828;2023-05-23T05:15:13;4.40;;;4.00;;
9918;SDS011;4998;51.024;13.828;2023-05-23T05:17:41;7.20;;;4.10;;
9918;SDS011;4998;51.024;13.828;2023-05-23T05:20:09;5.70;;;4.20;;
9918;SDS011;4998;51.024;13.828;2023-05-23T05:22:37;5.00;;;4.57;;
9918;SDS011;4998;51.024;13.828;2023-05-23T05:25:07;4.13;;;3.80;;
9918;SDS011;4998;51.024;13.828;2023-05-23T05:27:36;4.50;;;4.10;;
9918;SDS011;4998;51.024;13.828;2023-05-23T05:30:05;4.30;;;3.90;;
9918;SDS011;4998;51.024;13.828;2023-05-23T05:32:33;4.73;;;4.33;;
9918;SDS011;4998;51.024;13.828;2023-05-23T05:35:00;4.97;;;4.53;;
9918;SDS011;4998;51.024;13.828;2023-05-23T05:37:27;7.17;;;4.30;;
9918;SDS011;4998;51.024;13.828;2023-05-23T05:39:55;4.87;;;4.33;;
9918;SDS011;4998;51.024;13.828;2023-05-23T05:42:23;4.70;;;4.20;;
9918;SDS011;4998;51.024;13.828;2023-05-23T05:44:51;4.70;;;4.17;;
9918;SDS011;4998;51.024;13.828;2023-05-23T05:47:18;6.43;;;4.10;;
9918;SDS011;4998;51.024;13.828;2023-05-23T05:49:46;6.80;;;4.43;;
9918;SDS011;4998;51.024;13.828;2023-05-23T05:52:13;5.27;;;4.77;;
9918;SDS011;4998;51.024;13.828;2023-05-23T05:54:40;4.97;;;4.47;;
9918;SDS011;4998;51.024;13.828;2023-05-23T05:57:07;6.87;;;5.43;;
9918;SDS011;4998;51.024;13.828;2023-05-23T05:59:34;6.07;;;5.47;;
9918;SDS011;4998;51.024;13.828;2023-05-23T06:02:02;8.03;;;5.40;;
9918;SDS011;4998;51.024;13.828;2023-05-23T06:04:30;5.63;;;5.00;;
9918;SDS011;4998;51.024;13.828;2023-05-23T06:06:57;9.53;;;5.33;;
9918;SDS011;4998;51.024;13.828;2023-05-23T06:09:24;5.70;;;5.10;;
9918;SDS011;4998;51.024;13.828;2023-05-23T06:11:51;6.00;;;5.40;;
9918;SDS011;4998;51.024;13.828;2023-05-23T06:14:18;11.47;;;5.80;;
9918;SDS011;4998;51.024;13.828;2023-05-23T06:16:45;6.57;;;5.97;;
9918;SDS011;4998;51.024;13.828;2023-05-23T06:19:14;6.67;;;6.07;;
9918;SDS011;4998;51.024;13.828;2023-05-23T06:21:41;6.87;;;6.10;;
9918;SDS011;4998;51.024;13.828;2023-05-23T06:24:08;8.27;;;7.50;;
9918;SDS011;4998;51.024;13.828;2023-05-23T06:26:34;7.87;;;7.17;;
9918;SDS011;4998;51.024;13.828;2023-05-23T06:29:03;7.50;;;6.83;;
9918;SDS011;4998;51.024;13.828;2023-05-23T06:31:30;9.00;;;8.17;;
9918;SDS011;4998;51.024;13.828;2023-05-23T06:33:56;8.70;;;7.90;;
9918;SDS011;4998;51.024;13.828;2023-05-23T06:36:25;9.93;;;9.03;;
9918;SDS011;4998;51.024;13.828;2023-05-23T06:38:52;11.47;;;9.63;;
9918;SDS011;4998;51.024;13.828;2023-05-23T06:41:19;10.80;;;9.80;;
9918;SDS011;4998;51.024;13.828;2023-05-23T06:43:46;10.87;;;9.63;;
9918;SDS011;4998;51.024;13.828;2023-05-23T06:46:13;11.37;;;10.03;;
9918;SDS011;4998;51.024;13.828;2023-05-23T06:48:40;14.90;;;9.93;;
9918;SDS011;4998;51.024;13.828;2023-05-23T06:51:07;10.43;;;9.43;;
9918;SDS011;4998;51.024;13.828;2023-05-23T06:53:36;11.50;;;10.30;;
9918;SDS011;4998;51.024;13.828;2023-05-23T06:56:03;10.30;;;9.27;;
9918;SDS011;4998;51.024;13.828;2023-05-23T06:58:30;10.70;;;9.60;;
9918;SDS011;4998;51.024;13.828;2023-05-23T07:00:57;13.23;;;9.50;;
9918;SDS011;4998;51.024;13.828;2023-05-23T07:03:25;10.10;;;9.10;;
9918;SDS011;4998;51.024;13.828;2023-05-23T07:05:51;9.97;;;9.00;;
9918;SDS011;4998;51.024;13.828;2023-05-23T07:08:18;11.53;;;9.30;;
9918;SDS011;4998;51.024;13.828;2023-05-23T07:10:47;10.23;;;9.23;;
9918;SDS011;4998;51.024;13.828;2023-05-23T07:13:14;9.40;;;8.50;;
9918;SDS011;4998;51.024;13.828;2023-05-23T07:15:41;10.87;;;9.80;;
9918;SDS011;4998;51.024;13.828;2023-05-23T07:18:08;14.63;;;10.10;;
9918;SDS011;4998;51.024;13.828;2023-05-23T07:20:35;9.37;;;8.50;;
9918;SDS011;4998;51.024;13.828;2023-05-23T07:23:02;8.90;;;8.10;;
9918;SDS011;4998;51.024;13.828;2023-05-23T07:25:29;9.07;;;8.13;;
9918;SDS011;4998;51.024;13.828;2023-05-23T07:27:57;9.23;;;8.43;;
9918;SDS011;4998;51.024;13.828;2023-05-23T07:30:24;10.80;;;8.50;;
9918;SDS011;4998;51.024;13.828;2023-05-23T07:32:51;9.77;;;8.53;;
9918;SDS011;4998;51.024;13.828;2023-05-23T07:35:19;8.90;;;8.10;;
9918;SDS011;4998;51.024;13.828;2023-05-23T07:37:50;8.70;;;7.90;;
9918;SDS011;4998;51.024;13.828;2023-05-23T07:40:17;9.17;;;8.27;;
9918;SDS011;4998;51.024;13.828;2023-05-23T07:42:44;8.43;;;7.63;;
9918;SDS011;4998;51.024;13.828;2023-05-23T07:45:13;10.40;;;7.80;;
9918;SDS011;4998;51.024;13.828;2023-05-23T07:47:40;8.80;;;7.90;;
9918;SDS011;4998;51.024;13.828;2023-05-23T07:50:07;8.47;;;7.67;;
9918;SDS011;4998;51.024;13.828;2023-05-23T07:52:35;8.40;;;7.57;;
9918;SDS011;4998;51.024;13.828;2023-05-23T07:55:02;8.47;;;7.60;;
9918;SDS011;4998;51.024;13.828;2023-05-23T07:57:29;7.53;;;6.93;;
9918;SDS011;4998;51.024;13.828;2023-05-23T07:59:56;8.03;;;7.10;;
9918;SDS011;4998;51.024;13.828;2023-05-23T08:02:25;8.03;;;7.20;;
9918;SDS011;4998;51.024;13.828;2023-05-23T08:04:52;8.03;;;7.23;;
9918;SDS011;4998;51.024;13.828;2023-05-23T08:07:19;8.10;;;7.30;;
9918;SDS011;4998;51.024;13.828;2023-05-23T08:09:46;7.97;;;7.10;;
9918;SDS011;4998;51.024;13.828;2023-05-23T08:12:13;8.70;;;7.23;;
9918;SDS011;4998;51.024;13.828;2023-05-23T08:14:40;7.70;;;6.97;;
9918;SDS011;4998;51.024;13.828;2023-05-23T08:17:07;8.03;;;7.10;;
9918;SDS011;4998;51.024;13.828;2023-05-23T08:19:35;7.20;;;6.60;;
9918;SDS011;4998;51.024;13.828;2023-05-23T08:22:02;12.20;;;7.37;;
9918;SDS011;4998;51.024;13.828;2023-05-23T08:24:29;7.40;;;6.70;;
9918;SDS011;4998;51.024;13.828;2023-05-23T08:26:58;8.17;;;6.97;;
9918;SDS011;4998;51.024;13.828;2023-05-23T08:29:25;8.00;;;7.20;;
9918;SDS011;4998;51.024;13.828;2023-05-23T08:31:52;8.40;;;7.60;;
9918;SDS011;4998;51.024;13.828;2023-05-23T08:34:19;10.10;;;7.30;;
9918;SDS011;4998;51.024;13.828;2023-05-23T08:36:47;7.70;;;6.70;;
9918;SDS011;4998;51.024;13.828;2023-05-23T08:39:15;9.10;;;8.20;;
9918;SDS011;4998;51.024;13.828;2023-05-23T08:41:42;8.67;;;7.80;;
9918;SDS011;4998;51.024;13.828;2023-05-23T08:44:09;10.10;;;8.27;;
9918;SDS011;4998;51.024;13.828;2023-05-23T08:46:38;9.50;;;7.70;;
9918;SDS011;4998;51.024;13.828;2023-05-23T08:49:09;9.93;;;8.60;;
9918;SDS011;4998;51.024;13.828;2023-05-23T08:51:40;9.27;;;8.30;;
9918;SDS011;4998;51.024;13.828;2023-05-23T08:54:10;7.93;;;7.13;;
9918;SDS011;4998;51.024;13.828;2023-05-23T08:56:38;8.30;;;7.60;;
9918;SDS011;4998;51.024;13.828;2023-05-23T08:59:07;10.27;;;9.37;;
9918;SDS011;4998;51.024;13.828;2023-05-23T09:01:35;9.13;;;8.23;;
9918;SDS011;4998;51.024;13.828;2023-05-23T09:04:04;9.73;;;8.77;;
9918;SDS011;4998;51.024;13.828;2023-05-23T09:06:32;7.97;;;7.27;;
9918;SDS011;4998;51.024;13.828;2023-05-23T09:09:00;9.33;;;7.90;;
9918;SDS011;4998;51.024;13.828;2023-05-23T09:11:30;8.57;;;7.70;;
9918;SDS011;4998;51.024;13.828;2023-05-23T09:13:58;7.87;;;6.87;;
9918;SDS011;4998;51.024;13.828;2023-05-23T09:16:30;7.83;;;7.03;;
9918;SDS011;4998;51.024;13.828;2023-05-23T09:18:58;8.40;;;7.00;;
9918;SDS011;4998;51.024;13.828;2023-05-23T09:21:36;9.47;;;8.47;;
9918;SDS011;4998;51.024;13.828;2023-05-23T09:24:06;11.53;;;10.27;;
9918;SDS011;4998;51.024;13.828;2023-05-23T09:26:35;12.97;;;9.70;;
9918;SDS011;4998;51.024;13.828;2023-05-23T09:29:04;10.80;;;9.70;;
9918;SDS011;4998;51.024;13.828;2023-05-23T09:31:31;11.47;;;10.10;;
9918;SDS011;4998;51.024;13.828;2023-05-23T09:33:58;11.87;;;10.53;;
9918;SDS011;4998;51.024;13.828;2023-05-23T09:36:26;11.80;;;10.67;;
9918;SDS011;4998;51.024;13.828;2023-05-23T09:38:54;13.40;;;11.50;;
9918;SDS011;4998;51.024;13.828;2023-05-23T09:41:22;13.70;;;11.60;;
9918;SDS011;4998;51.024;13.828;2023-05-23T09:43:52;14.33;;;11.87;;
9918;SDS011;4998;51.024;13.828;2023-05-23T09:46:21;16.37;;;14.67;;
9918;SDS011;4998;51.024;13.828;2023-05-23T09:48:48;16.17;;;14.47;;
9918;SDS011;4998;51.024;13.828;2023-05-23T09:51:17;19.77;;;17.07;;
9918;SDS011;4998;51.024;13.828;2023-05-23T09:53:46;17.73;;;15.57;;
9918;SDS011;4998;51.024;13.828;2023-05-23T09:56:14;20.07;;;17.27;;
9918;SDS011;4998;51.024;13.828;2023-05-23T09:58:43;18.20;;;16.30;;
9918;SDS011;4998;51.024;13.828;2023-05-23T10:01:14;26.00;;;17.87;;
9918;SDS011;4998;51.024;13.828;2023-05-23T10:03:43;23.63;;;17.73;;
9918;SDS011;4998;51.024;13.828;2023-05-23T10:06:16;19.60;;;17.33;;
9918;SDS011;4998;51.024;13.828;2023-05-23T10:08:49;19.97;;;17.23;;
9918;SDS011;4998;51.024;13.828;2023-05-23T10:14:36;22.67;;;17.40;;
9918;SDS011;4998;51.024;13.828;2023-05-23T10:17:14;21.70;;;17.33;;
9918;SDS011;4998;51.024;13.828;2023-05-23T10:19:47;24.30;;;17.60;;
9918;SDS011;4998;51.024;13.828;2023-05-23T10:22:19;19.20;;;15.73;;
9918;SDS011;4998;51.024;13.828;2023-05-23T10:24:47;19.73;;;15.97;;
9918;SDS011;4998;51.024;13.828;2023-05-23T10:27:14;15.63;;;13.40;;
9918;SDS011;4998;51.024;13.828;2023-05-23T10:29:41;15.13;;;12.27;;
9918;SDS011;4998;51.024;13.828;2023-05-23T10:32:10;12.27;;;10.67;;
9918;SDS011;4998;51.024;13.828;2023-05-23T10:34:39;17.57;;;10.17;;
9918;SDS011;4998;51.024;13.828;2023-05-23T10:37:14;11.90;;;9.30;;
9918;SDS011;4998;51.024;13.828;2023-05-23T10:39:48;14.43;;;9.10;;
9918;SDS011;4998;51.024;13.828;2023-05-23T10:42:29;8.50;;;7.70;;
9918;SDS011;4998;51.024;13.828;2023-05-23T10:45:14;8.13;;;7.33;;
9918;SDS011;4998;51.024;13.828;2023-05-23T10:47:45;8.00;;;7.13;;
9918;SDS011;4998;51.024;13.828;2023-05-23T10:50:12;9.53;;;6.80;;
9918;SDS011;4998;51.024;13.828;2023-05-23T10:52:55;8.00;;;7.20;;
9918;SDS011;4998;51.024;13.828;2023-05-23T10:55:22;8.83;;;7.30;;
9918;SDS011;4998;51.024;13.828;2023-05-23T11:00:37;8.83;;;7.90;;
9918;SDS011;4998;51.024;13.828;2023-05-23T11:03:06;9.53;;;7.70;;
9918;SDS011;4998;51.024;13.828;2023-05-23T11:05:35;7.30;;;6.60;;
9918;SDS011;4998;51.024;13.828;2023-05-23T11:08:08;6.60;;;5.90;;
9918;SDS011;4998;51.024;13.828;2023-05-23T11:10:51;7.33;;;6.10;;
9918;SDS011;4998;51.024;13.828;2023-05-23T11:13:19;7.40;;;6.60;;
9918;SDS011;4998;51.024;13.828;2023-05-23T11:15:47;7.90;;;7.10;;
9918;SDS011;4998;51.024;13.828;2023-05-23T11:18:20;7.10;;;6.37;;
9918;SDS011;4998;51.024;13.828;2023-05-23T11:20:52;7.50;;;6.70;;
9918;SDS011;4998;51.024;13.828;2023-05-23T11:23:20;9.33;;;7.07;;
9918;SDS011;4998;51.024;13.828;2023-05-23T11:25:48;10.40;;;7.40;;
9918;SDS011;4998;51.024;13.828;2023-05-23T11:28:17;7.50;;;6.80;;
9918;SDS011;4998;51.024;13.828;2023-05-23T11:30:46;7.33;;;6.60;;
9918;SDS011;4998;51.024;13.828;2023-05-23T11:33:14;7.63;;;6.83;;
9918;SDS011;4998;51.024;13.828;2023-05-23T11:35:44;7.60;;;6.90;;
9918;SDS011;4998;51.024;13.828;2023-05-23T11:38:12;8.00;;;6.90;;
9918;SDS011;4998;51.024;13.828;2023-05-23T11:40:41;7.40;;;6.60;;
9918;SDS011;4998;51.024;13.828;2023-05-23T11:43:10;8.70;;;7.27;;
9918;SDS011;4998;51.024;13.828;2023-05-23T11:45:39;7.30;;;6.10;;
9918;SDS011;4998;51.024;13.828;2023-05-23T11:48:06;8.13;;;7.00;;
9918;SDS011;4998;51.024;13.828;2023-05-23T11:50:40;9.47;;;6.13;;
9918;SDS011;4998;51.024;13.828;2023-05-23T11:53:11;7.70;;;6.40;;
9918;SDS011;4998;51.024;13.828;2023-05-23T11:55:46;6.93;;;6.30;;
9918;SDS011;4998;51.024;13.828;2023-05-23T11:58:14;10.63;;;5.87;;
9918;SDS011;4998;51.024;13.828;2023-05-23T12:00:42;6.87;;;6.17;;
9918;SDS011;4998;51.024;13.828;2023-05-23T12:03:10;7.33;;;6.50;;
9918;SDS011;4998;51.024;13.828;2023-05-23T12:05:37;7.13;;;6.43;;
9918;SDS011;4998;51.024;13.828;2023-05-23T12:08:05;7.07;;;6.37;;
9918;SDS011;4998;51.024;13.828;2023-05-23T12:10:32;6.83;;;6.20;;
9918;SDS011;4998;51.024;13.828;2023-05-23T12:12:59;7.53;;;6.80;;
9918;SDS011;4998;51.024;13.828;2023-05-23T12:15:26;6.53;;;5.93;;
9918;SDS011;4998;51.024;13.828;2023-05-23T12:17:56;6.90;;;6.23;;
9918;SDS011;4998;51.024;13.828;2023-05-23T12:23:17;7.93;;;7.13;;
9918;SDS011;4998;51.024;13.828;2023-05-23T12:25:48;7.53;;;6.83;;
9918;SDS011;4998;51.024;13.828;2023-05-23T12:28:16;7.63;;;6.93;;
9918;SDS011;4998;51.024;13.828;2023-05-23T12:30:44;7.43;;;6.80;;
9918;SDS011;4998;51.024;13.828;2023-05-23T12:33:12;7.80;;;7.10;;
9918;SDS011;4998;51.024;13.828;2023-05-23T12:35:41;8.13;;;7.30;;
9918;SDS011;4998;51.024;13.828;2023-05-23T12:38:13;8.23;;;7.53;;
9918;SDS011;4998;51.024;13.828;2023-05-23T12:40:42;7.47;;;6.77;;
9918;SDS011;4998;51.024;13.828;2023-05-23T12:43:10;8.20;;;7.50;;
9918;SDS011;4998;51.024;13.828;2023-05-23T12:45:37;7.80;;;7.10;;
9918;SDS011;4998;51.024;13.828;2023-05-23T12:48:04;7.83;;;7.13;;
9918;SDS011;4998;51.024;13.828;2023-05-23T12:50:32;6.93;;;6.33;;
9918;SDS011;4998;51.024;13.828;2023-05-23T12:52:59;7.27;;;6.67;;
9918;SDS011;4998;51.024;13.828;2023-05-23T12:55:26;10.77;;;6.80;;
9918;SDS011;4998;51.024;13.828;2023-05-23T12:57:55;6.87;;;6.27;;
9918;SDS011;4998;51.024;13.828;2023-05-23T13:00:22;7.53;;;6.17;;
9918;SDS011;4998;51.024;13.828;2023-05-23T13:02:49;7.20;;;5.63;;
9918;SDS011;4998;51.024;13.828;2023-05-23T13:05:16;5.80;;;5.30;;
9918;SDS011;4998;51.024;13.828;2023-05-23T13:07:43;5.27;;;4.77;;
9918;SDS011;4998;51.024;13.828;2023-05-23T13:10:10;5.10;;;4.30;;
9918;SDS011;4998;51.024;13.828;2023-05-23T13:12:38;4.70;;;4.30;;
9918;SDS011;4998;51.024;13.828;2023-05-23T13:15:07;4.60;;;4.20;;
9918;SDS011;4998;51.024;13.828;2023-05-23T13:17:34;5.70;;;4.43;;
9918;SDS011;4998;51.024;13.828;2023-05-23T13:20:02;4.90;;;4.40;;
9918;SDS011;4998;51.024;13.828;2023-05-23T13:22:30;4.80;;;4.23;;
9918;SDS011;4998;51.024;13.828;2023-05-23T13:24:57;4.30;;;3.90;;
9918;SDS011;4998;51.024;13.828;2023-05-23T13:27:24;4.97;;;4.57;;
9918;SDS011;4998;51.024;13.828;2023-05-23T13:29:51;4.70;;;4.27;;
9918;SDS011;4998;51.024;13.828;2023-05-23T13:32:19;4.53;;;4.13;;
9918;SDS011;4998;51.024;13.828;2023-05-23T13:34:46;4.77;;;4.27;;
9918;SDS011;4998;51.024;13.828;2023-05-23T13:37:13;4.40;;;4.10;;
9918;SDS011;4998;51.024;13.828;2023-05-23T13:39:40;4.97;;;4.00;;
9918;SDS011;4998;51.024;13.828;2023-05-23T13:42:07;4.40;;;4.00;;
9918;SDS011;4998;51.024;13.828;2023-05-23T13:44:35;4.43;;;3.70;;
9918;SDS011;4998;51.024;13.828;2023-05-23T13:47:09;4.87;;;4.47;;
9918;SDS011;4998;51.024;13.828;2023-05-23T13:49:38;6.17;;;5.57;;
9918;SDS011;4998;51.024;13.828;2023-05-23T13:52:06;7.40;;;5.43;;
9918;SDS011;4998;51.024;13.828;2023-05-23T13:54:33;5.77;;;5.20;;
9918;SDS011;4998;51.024;13.828;2023-05-23T13:57:00;5.47;;;4.07;;
9918;SDS011;4998;51.024;13.828;2023-05-23T13:59:27;5.43;;;5.03;;
9918;SDS011;4998;51.024;13.828;2023-05-23T14:01:54;4.77;;;4.20;;
9918;SDS011;4998;51.024;13.828;2023-05-23T14:04:21;4.50;;;4.10;;
9918;SDS011;4998;51.024;13.828;2023-05-23T14:06:50;4.60;;;4.20;;
9918;SDS011;4998;51.024;13.828;2023-05-23T14:09:17;5.37;;;4.87;;
9918;SDS011;4998;51.024;13.828;2023-05-23T14:11:44;4.83;;;4.43;;
9918;SDS011;4998;51.024;13.828;2023-05-23T14:14:11;6.13;;;5.47;;
9918;SDS011;4998;51.024;13.828;2023-05-23T14:16:38;4.83;;;4.43;;
9918;SDS011;4998;51.024;13.828;2023-05-23T14:19:05;4.40;;;4.07;;
9918;SDS011;4998;51.024;13.828;2023-05-23T14:21:32;3.90;;;3.60;;
9918;SDS011;4998;51.024;13.828;2023-05-23T14:24:01;4.80;;;4.07;;
9918;SDS011;4998;51.024;13.828;2023-05-23T14:26:28;4.37;;;4.07;;
9918;SDS011;4998;51.024;13.828;2023-05-23T14:28:55;3.83;;;3.53;;
9918;SDS011;4998;51.024;13.828;2023-05-23T14:31:22;4.80;;;4.10;;
9918;SDS011;4998;51.024;13.828;2023-05-23T14:33:49;4.40;;;4.00;;
9918;SDS011;4998;51.024;13.828;2023-05-23T14:36:16;3.70;;;3.40;;
9918;SDS011;4998;51.024;13.828;2023-05-23T14:38:43;3.47;;;2.70;;
9918;SDS011;4998;51.024;13.828;2023-05-23T14:41:12;2.70;;;2.50;;
9918;SDS011;4998;51.024;13.828;2023-05-23T14:43:39;2.30;;;2.20;;
9918;SDS011;4998;51.024;13.828;2023-05-23T14:46:06;2.40;;;2.30;;
9918;SDS011;4998;51.024;13.828;2023-05-23T14:48:33;2.57;;;2.47;;
9918;SDS011;4998;51.024;13.828;2023-05-23T14:51:00;2.80;;;2.40;;
9918;SDS011;4998;51.024;13.828;2023-05-23T14:53:28;2.43;;;2.23;;
9918;SDS011;4998;51.024;13.828;2023-05-23T14:55:56;2.63;;;2.43;;
9918;SDS011;4998;51.024;13.828;2023-05-23T14:58:24;3.00;;;2.70;;
9918;SDS011;4998;51.024;13.828;2023-05-23T15:00:51;3.00;;;2.80;;
9918;SDS011;4998;51.024;13.828;2023-05-23T15:03:18;2.93;;;2.73;;
9918;SDS011;4998;51.024;13.828;2023-05-23T15:05:45;2.70;;;2.50;;
9918;SDS011;4998;51.024;13.828;2023-05-23T15:08:13;3.10;;;2.90;;
9918;SDS011;4998;51.024;13.828;2023-05-23T15:10:40;5.20;;;2.70;;
9918;SDS011;4998;51.024;13.828;2023-05-23T15:13:09;3.13;;;2.80;;
9918;SDS011;4998;51.024;13.828;2023-05-23T15:15:37;2.80;;;2.60;;